Waterford, Wisconsin
Current Conditions -  °F | °C
As of 5:15 AM on Sunday 23 Nov 2014 (Local Time) from KBUU Reporting Station
Haze Haze  
Wind Chill: 42°   Ceiling: 500
Heat Index: 47°   Visibility: 4mi
Dew Point: 47°   Wind: 14mph
Humidity: 99%   Direction: 190°S
Pressure: 29.71"   Gusts: 21mph
Location:  42.76°N, 88.21°W
Report Text: KBUU 231115Z AUTO 19012G18KT 4SM BR OVC005 09/09 A2971 RMK AO2 T00860085
Loading
Personal Weather Stations






























Interactive Weather Map New forecast layout! Learn more

10-Day Weather Forecast

Advertisements
Track Severe Weather on mobile